createdAt,value
2019-01-15T00:01:50.676Z,12.90
2019-01-15T00:04:22.329Z,15.73
2019-01-15T00:06:51.911Z,22.27
2019-01-15T00:09:22.539Z,36.20
2019-01-15T00:11:52.214Z,22.00
2019-01-15T00:14:21.287Z,16.33
2019-01-15T00:16:53.310Z,12.50
2019-01-15T00:19:25.121Z,46.00
2019-01-15T00:21:55.999Z,47.63
2019-01-15T00:24:26.357Z,25.80
2019-01-15T00:26:58.606Z,19.40
2019-01-15T00:29:28.466Z,34.97
2019-01-15T00:31:59.336Z,19.57
2019-01-15T00:34:28.416Z,10.00
2019-01-15T00:36:57.847Z,48.40
2019-01-15T00:39:31.885Z,26.80
2019-01-15T00:42:02.780Z,20.00
2019-01-15T00:44:38.007Z,12.07
2019-01-15T00:47:10.695Z,9.80
2019-01-15T00:49:42.585Z,26.30
2019-01-15T00:52:13.357Z,24.60
2019-01-15T00:54:46.706Z,13.97
2019-01-15T00:57:16.043Z,12.70
2019-01-15T00:59:48.269Z,13.73
2019-01-15T01:02:19.250Z,12.13
2019-01-15T01:04:49.674Z,15.37
2019-01-15T01:07:19.064Z,15.10
2019-01-15T01:09:48.500Z,12.30
2019-01-15T01:12:22.132Z,10.77
2019-01-15T01:14:49.827Z,8.20
2019-01-15T01:17:18.988Z,8.00
2019-01-15T01:19:48.669Z,9.00
2019-01-15T01:22:18.521Z,11.90
2019-01-15T01:24:48.425Z,15.90
2019-01-15T01:27:17.887Z,19.47
2019-01-15T01:29:47.446Z,20.20
2019-01-15T01:32:17.529Z,24.53
2019-01-15T01:34:47.252Z,22.63
2019-01-15T01:37:17.004Z,18.63
2019-01-15T01:39:46.880Z,20.43
2019-01-15T01:42:16.622Z,19.37
2019-01-15T01:44:46.275Z,21.80
2019-01-15T01:47:15.418Z,13.67
2019-01-15T01:49:45.170Z,10.73
2019-01-15T01:52:14.990Z,8.73
2019-01-15T01:54:44.927Z,10.33
2019-01-15T01:57:14.813Z,12.80
2019-01-15T01:59:44.670Z,11.80
2019-01-15T02:02:14.673Z,13.10
2019-01-15T02:04:44.473Z,14.33
2019-01-15T02:07:14.393Z,13.30
2019-01-15T02:09:44.294Z,14.20
2019-01-15T02:12:13.753Z,13.80
2019-01-15T02:14:43.507Z,13.27
2019-01-15T02:17:13.226Z,12.03
2019-01-15T02:19:43.093Z,9.80
2019-01-15T02:22:12.748Z,11.80
2019-01-15T02:24:42.972Z,10.97
2019-01-15T02:27:12.683Z,11.90
2019-01-15T02:29:42.160Z,11.57
2019-01-15T02:32:11.925Z,12.70
2019-01-15T02:34:41.784Z,13.43
2019-01-15T02:37:11.495Z,13.03
2019-01-15T02:39:40.940Z,9.67
2019-01-15T02:42:10.798Z,9.30
2019-01-15T02:44:40.642Z,9.43
2019-01-15T02:47:10.449Z,9.73
2019-01-15T02:49:40.478Z,10.00
2019-01-15T02:52:10.297Z,11.90
2019-01-15T02:54:39.975Z,12.50
2019-01-15T02:57:09.698Z,13.43
2019-01-15T02:59:38.676Z,12.70
2019-01-15T03:02:08.368Z,14.73
2019-01-15T03:04:37.880Z,14.30
2019-01-15T03:07:07.498Z,12.10
2019-01-15T03:09:36.686Z,9.20
2019-01-15T03:12:06.128Z,9.93
2019-01-15T03:14:36.194Z,11.10
2019-01-15T03:17:05.893Z,10.50
2019-01-15T03:19:35.732Z,12.90
2019-01-15T03:22:05.475Z,12.77
2019-01-15T03:24:35.145Z,18.50
2019-01-15T03:27:05.236Z,17.20
2019-01-15T03:29:34.840Z,19.03
2019-01-15T03:32:04.820Z,22.97
2019-01-15T03:34:34.639Z,23.33
2019-01-15T03:37:04.315Z,20.50
2019-01-15T03:39:34.297Z,19.80
2019-01-15T03:42:04.090Z,18.10
2019-01-15T03:44:33.872Z,17.90
2019-01-15T03:47:03.674Z,21.93
2019-01-15T03:49:33.411Z,17.50
2019-01-15T03:52:03.197Z,16.03
2019-01-15T03:54:32.740Z,15.50
2019-01-15T03:57:02.627Z,13.77
2019-01-15T03:59:32.365Z,15.77
2019-01-15T04:02:02.298Z,18.33
2019-01-15T04:04:31.994Z,19.93
2019-01-15T04:07:01.943Z,16.53
2019-01-15T04:09:31.583Z,16.70
2019-01-15T04:12:01.598Z,17.30
2019-01-15T04:14:30.752Z,17.07
2019-01-15T04:17:00.791Z,20.27
2019-01-15T04:19:30.438Z,17.03
2019-01-15T04:22:00.292Z,16.53
2019-01-15T04:24:30.009Z,16.33
2019-01-15T04:26:59.770Z,16.00
2019-01-15T04:29:29.928Z,15.87
2019-01-15T04:31:59.991Z,17.17
2019-01-15T04:34:29.746Z,15.27
2019-01-15T04:36:59.241Z,13.00
2019-01-15T04:39:28.824Z,15.27
2019-01-15T04:41:58.626Z,16.90
2019-01-15T04:44:28.557Z,15.80
2019-01-15T04:46:58.475Z,14.70
2019-01-15T04:49:28.255Z,13.67
2019-01-15T04:51:57.822Z,14.40
2019-01-15T04:54:27.912Z,14.57
2019-01-15T04:56:58.124Z,15.20
2019-01-15T04:59:27.628Z,13.90
2019-01-15T05:01:57.660Z,15.17
2019-01-15T05:04:27.169Z,14.37
2019-01-15T05:07:02.847Z,13.73
2019-01-15T05:09:32.638Z,15.67
2019-01-15T05:12:02.503Z,14.10
2019-01-15T05:14:32.399Z,10.97
2019-01-15T05:17:02.174Z,10.40
2019-01-15T05:19:31.554Z,11.57
2019-01-15T05:22:01.465Z,12.73
2019-01-15T05:24:31.300Z,12.33
2019-01-15T05:27:00.924Z,9.70
2019-01-15T05:29:30.636Z,11.87
2019-01-15T05:32:00.615Z,11.80
2019-01-15T05:34:30.413Z,11.37
2019-01-15T05:36:59.885Z,10.37
2019-01-15T05:39:29.609Z,9.80
2019-01-15T05:41:59.357Z,11.37
2019-01-15T05:44:29.230Z,9.13
2019-01-15T05:46:58.753Z,9.50
2019-01-15T05:49:28.481Z,9.23
2019-01-15T05:51:58.266Z,8.40
2019-01-15T05:54:28.076Z,10.10
2019-01-15T05:56:57.850Z,9.77
2019-01-15T05:59:27.474Z,9.03
2019-01-15T06:01:57.301Z,9.90
2019-01-15T06:04:27.022Z,9.40
2019-01-15T06:06:56.519Z,9.20
2019-01-15T06:09:26.265Z,9.13
2019-01-15T06:11:56.058Z,8.60
2019-01-15T06:14:25.650Z,10.70
2019-01-15T06:16:55.097Z,9.40
2019-01-15T06:19:24.870Z,8.70
2019-01-15T06:21:54.681Z,10.13
2019-01-15T06:24:24.502Z,10.10
2019-01-15T06:26:54.199Z,10.07
2019-01-15T06:29:24.085Z,9.40
2019-01-15T06:31:53.399Z,8.97
2019-01-15T06:34:23.107Z,9.90
2019-01-15T06:36:52.921Z,8.50
2019-01-15T06:39:22.355Z,8.67
2019-01-15T06:41:52.079Z,8.30
2019-01-15T06:44:21.969Z,8.33
2019-01-15T06:46:51.782Z,8.50
2019-01-15T06:49:21.302Z,8.93
2019-01-15T06:51:50.802Z,8.47
2019-01-15T06:54:20.644Z,8.13
2019-01-15T06:56:51.992Z,9.33
2019-01-15T06:59:21.885Z,9.47
2019-01-15T07:01:51.498Z,9.70
2019-01-15T07:04:20.992Z,8.90
2019-01-15T07:06:50.771Z,9.07
2019-01-15T07:09:20.639Z,7.80
2019-01-15T07:11:50.124Z,7.83
2019-01-15T07:14:19.752Z,7.67
2019-01-15T07:16:49.191Z,7.70
2019-01-15T07:19:18.534Z,8.07
2019-01-15T07:21:48.291Z,8.33
2019-01-15T07:24:17.935Z,7.20
2019-01-15T07:26:47.354Z,8.33
2019-01-15T07:29:17.399Z,7.90
2019-01-15T07:31:46.905Z,8.10
2019-01-15T07:34:16.725Z,8.27
2019-01-15T07:36:46.654Z,10.10
2019-01-15T07:39:16.401Z,10.03
2019-01-15T07:41:46.109Z,8.37
2019-01-15T07:44:15.577Z,9.33
2019-01-15T07:46:45.185Z,10.57
2019-01-15T07:49:15.436Z,8.83
2019-01-15T07:51:45.487Z,8.60
2019-01-15T07:54:14.786Z,18.80
2019-01-15T07:56:44.413Z,13.20
2019-01-15T07:59:14.250Z,10.10
2019-01-15T08:01:44.617Z,20.67
2019-01-15T08:04:14.056Z,24.13
2019-01-15T08:06:44.077Z,40.57
2019-01-15T08:09:13.376Z,42.40
2019-01-15T08:11:42.883Z,24.07
2019-01-15T08:14:12.471Z,13.77
2019-01-15T08:16:41.852Z,13.97
2019-01-15T08:19:11.041Z,11.87
2019-01-15T08:21:40.639Z,11.93
2019-01-15T08:24:10.591Z,12.13
2019-01-15T08:26:40.110Z,24.43
2019-01-15T08:29:09.402Z,15.83
2019-01-15T08:31:39.007Z,14.77
2019-01-15T08:34:08.017Z,15.63
2019-01-15T08:36:38.155Z,14.30
2019-01-15T08:39:08.768Z,15.57
2019-01-15T08:41:38.692Z,16.10
2019-01-15T08:44:08.382Z,17.63
2019-01-15T08:46:38.318Z,17.97
2019-01-15T08:49:07.668Z,17.60
2019-01-15T08:51:38.322Z,19.07
2019-01-15T08:54:08.328Z,19.57
2019-01-15T08:56:38.126Z,16.67
2019-01-15T08:59:07.832Z,18.90
2019-01-15T09:01:37.547Z,18.80
2019-01-15T09:04:07.080Z,18.00
2019-01-15T09:06:36.762Z,23.20
2019-01-15T09:09:08.123Z,24.20
2019-01-15T09:11:37.918Z,21.50
2019-01-15T09:14:07.624Z,26.77
2019-01-15T09:16:37.485Z,26.90
2019-01-15T09:19:06.480Z,26.40
2019-01-15T09:21:35.651Z,27.27
2019-01-15T09:24:04.597Z,28.57
2019-01-15T09:26:34.512Z,27.30
2019-01-15T09:29:03.686Z,22.73
2019-01-15T09:31:32.792Z,19.63
2019-01-15T09:34:02.256Z,18.27
2019-01-15T09:36:31.958Z,16.33
2019-01-15T09:39:01.490Z,16.00
2019-01-15T09:41:30.673Z,13.73
2019-01-15T09:44:03.405Z,14.03
2019-01-15T09:46:33.645Z,12.07
2019-01-15T09:49:03.067Z,11.40
2019-01-15T09:51:33.008Z,11.50
2019-01-15T09:54:02.515Z,14.23
2019-01-15T09:56:32.238Z,14.43
2019-01-15T09:59:02.252Z,13.97
2019-01-15T10:01:31.927Z,12.73
2019-01-15T10:04:02.213Z,13.57
2019-01-15T10:06:32.151Z,12.03
2019-01-15T10:09:01.191Z,11.87
2019-01-15T10:11:30.275Z,12.97
2019-01-15T10:14:00.356Z,13.57
2019-01-15T10:16:30.049Z,15.13
2019-01-15T10:18:59.198Z,14.23
2019-01-15T10:21:28.700Z,15.10
2019-01-15T10:23:57.951Z,16.00
2019-01-15T10:26:27.704Z,15.87
2019-01-15T10:28:57.277Z,16.63
2019-01-15T10:31:50.955Z,15.90
2019-01-15T10:34:21.804Z,14.10
2019-01-15T10:36:53.396Z,11.67
2019-01-15T10:39:22.912Z,6.73
2019-01-15T10:41:52.883Z,6.30
2019-01-15T10:44:22.888Z,6.47
2019-01-15T10:46:52.714Z,6.70
2019-01-15T10:49:21.877Z,6.60
2019-01-15T10:51:51.390Z,7.73
2019-01-15T10:54:20.849Z,6.63
2019-01-15T10:56:50.183Z,7.27
2019-01-15T10:59:19.888Z,7.20
2019-01-15T11:01:49.376Z,6.47
2019-01-15T11:04:19.344Z,6.57
2019-01-15T11:06:49.218Z,5.37
2019-01-15T11:15:14.822Z,3.80
2019-01-15T11:26:26.124Z,2.60
2019-01-15T11:34:38.994Z,1.90
2019-01-15T11:37:12.963Z,2.93
2019-01-15T11:39:42.538Z,3.13
2019-01-15T13:38:09.347Z,2.13
2019-01-15T13:40:55.497Z,1.80
2019-01-15T13:43:51.699Z,2.00
2019-01-15T13:46:40.547Z,1.77
2019-01-15T13:49:11.838Z,1.67
2019-01-15T13:51:43.306Z,1.77
2019-01-15T13:54:30.670Z,1.70
2019-01-15T13:57:02.184Z,1.83
2019-01-15T13:59:32.986Z,1.90
2019-01-15T14:02:19.451Z,1.50
2019-01-15T14:04:53.149Z,2.40
2019-01-15T14:07:36.728Z,1.40
2019-01-15T14:10:19.362Z,2.17
2019-01-15T14:12:53.806Z,1.27
2019-01-15T14:15:24.738Z,1.30
2019-01-15T14:18:13.677Z,1.40
2019-01-15T14:20:57.134Z,1.33
2019-01-15T14:23:43.509Z,1.80
2019-01-15T14:26:20.985Z,1.50
2019-01-15T14:28:58.704Z,1.93
2019-01-15T14:31:33.781Z,1.50
2019-01-15T14:34:10.481Z,2.13
2019-01-15T14:36:50.678Z,1.30
2019-01-15T14:39:21.594Z,1.47
2019-01-15T14:42:14.327Z,1.70
2019-01-15T14:44:48.016Z,1.60
2019-01-15T14:47:18.740Z,1.40
2019-01-15T14:50:05.612Z,0.93
2019-01-15T14:52:51.816Z,1.33
2019-01-15T14:55:39.578Z,1.40
2019-01-15T14:58:28.539Z,1.17
2019-01-15T15:01:15.993Z,1.50
2019-01-15T15:03:46.631Z,1.30
2019-01-15T15:06:20.968Z,1.20
2019-01-15T15:09:08.012Z,1.07
2019-01-15T15:11:47.766Z,1.20
2019-01-15T15:14:18.763Z,1.00
2019-01-15T15:16:49.465Z,1.20
2019-01-15T15:19:24.383Z,0.87
2019-01-15T15:21:59.114Z,0.83
2019-01-15T15:24:30.021Z,1.03
2019-01-15T15:27:06.839Z,1.00
2019-01-15T15:29:37.553Z,1.00
2019-01-15T15:32:08.204Z,1.07
2019-01-15T15:34:50.895Z,0.87
2019-01-15T15:37:21.575Z,1.30
2019-01-15T15:39:58.889Z,1.80
2019-01-15T15:42:37.103Z,1.07
2019-01-15T15:45:11.719Z,1.23
2019-01-15T15:47:55.974Z,1.60
2019-01-15T15:50:30.198Z,1.70
2019-01-15T15:53:19.652Z,1.53
2019-01-15T15:55:51.788Z,0.90
2019-01-15T15:58:26.809Z,1.73
2019-01-15T16:01:09.736Z,1.77
2019-01-15T16:03:46.963Z,2.80
2019-01-15T16:06:33.961Z,1.23
2019-01-15T16:09:07.592Z,1.00
2019-01-15T16:11:53.981Z,0.93
2019-01-15T16:14:24.858Z,1.30
2019-01-15T16:17:01.035Z,1.30
2019-01-15T16:19:49.962Z,1.17
2019-01-15T16:22:21.544Z,1.13
2019-01-15T16:25:07.894Z,1.70
2019-01-15T16:27:54.875Z,2.30
2019-01-15T16:30:37.645Z,1.90
2019-01-15T16:33:17.303Z,1.93
2019-01-15T16:35:51.190Z,2.17
2019-01-15T16:38:39.051Z,2.70
2019-01-15T16:41:16.011Z,2.63
2019-01-15T16:44:04.941Z,2.23
2019-01-15T16:46:41.757Z,1.73
2019-01-15T16:49:12.937Z,2.17
2019-01-15T16:51:53.498Z,3.30
2019-01-15T16:54:35.307Z,10.90
2019-01-15T16:57:09.547Z,6.37
2019-01-15T16:59:52.463Z,6.87
2019-01-15T17:02:26.117Z,2.37
2019-01-15T17:04:59.810Z,3.17
2019-01-15T17:07:31.297Z,2.90
2019-01-15T17:10:01.998Z,1.77
2019-01-15T17:12:36.162Z,2.33
2019-01-15T17:15:16.837Z,2.87
2019-01-15T17:18:04.006Z,2.17
2019-01-15T17:20:38.714Z,3.77
2019-01-15T17:23:15.314Z,12.60
2019-01-15T17:25:55.205Z,7.50
2019-01-15T17:28:32.215Z,3.77
2019-01-15T17:31:19.215Z,7.13
2019-01-15T17:34:02.304Z,7.20
2019-01-15T17:36:36.451Z,5.73
2019-01-15T17:39:26.865Z,5.40
2019-01-15T17:42:00.162Z,3.80
2019-01-15T17:44:31.061Z,3.70
2019-01-15T17:47:18.103Z,3.10
2019-01-15T17:50:06.173Z,2.33
2019-01-15T17:52:43.804Z,11.83
2019-01-15T17:55:18.964Z,11.10
2019-01-15T17:57:58.700Z,5.70
2019-01-15T18:00:36.195Z,4.67
2019-01-15T18:03:23.261Z,5.10
2019-01-15T18:05:54.363Z,3.97
2019-01-15T18:08:30.969Z,4.70
2019-01-15T18:11:05.289Z,7.73
2019-01-15T18:13:36.081Z,7.10
2019-01-15T18:16:23.071Z,20.00
2019-01-15T18:19:06.140Z,17.83
2019-01-15T18:21:43.190Z,15.10
2019-01-15T18:24:32.540Z,11.20
2019-01-15T18:27:03.418Z,7.87
2019-01-15T18:29:46.731Z,6.27
2019-01-15T18:32:34.507Z,4.90
2019-01-15T18:35:05.504Z,4.73
2019-01-15T18:37:36.074Z,5.80
2019-01-15T18:40:25.964Z,27.57
2019-01-15T18:42:56.707Z,18.27
2019-01-15T18:45:33.252Z,19.10
2019-01-15T18:48:06.673Z,15.10
2019-01-15T18:50:49.452Z,8.77
2019-01-15T18:53:26.003Z,12.60
2019-01-15T18:55:56.926Z,8.03
2019-01-15T18:58:27.847Z,16.90
2019-01-15T19:01:08.142Z,8.10
2019-01-15T19:03:47.874Z,8.37
2019-01-15T19:06:34.833Z,10.30
2019-01-15T19:09:21.632Z,12.60
2019-01-15T19:12:01.923Z,10.10
2019-01-15T19:14:42.084Z,6.77
2019-01-15T19:17:12.832Z,6.50
2019-01-15T19:19:49.601Z,9.50
2019-01-15T19:22:20.486Z,5.10
2019-01-15T19:24:54.073Z,6.70
2019-01-15T19:27:33.933Z,32.80
2019-01-15T19:30:07.634Z,6.70
2019-01-15T19:32:54.932Z,7.10
2019-01-15T19:35:28.772Z,5.77
2019-01-15T19:38:14.831Z,5.50
2019-01-15T19:41:02.122Z,5.67
2019-01-15T19:43:51.712Z,6.00
2019-01-15T19:46:28.594Z,7.73
2019-01-15T19:49:18.133Z,4.67
2019-01-15T19:52:00.874Z,4.27
2019-01-15T19:54:34.312Z,17.23
2019-01-15T19:57:08.722Z,12.57
2019-01-15T19:59:55.652Z,8.60
2019-01-15T20:02:32.651Z,7.97
2019-01-15T20:05:15.483Z,7.67
2019-01-15T20:07:46.244Z,7.20
2019-01-15T20:10:32.086Z,7.17
2019-01-15T20:13:02.964Z,9.40
2019-01-15T20:15:36.602Z,7.70
2019-01-15T20:18:10.326Z,8.67
2019-01-15T20:20:50.045Z,9.13
